createdAt,value
2023-01-30T00:00:51.918Z,45.47
2023-01-30T00:03:18.622Z,47.10
2023-01-30T00:05:45.181Z,40.25
2023-01-30T00:08:11.818Z,45.83
2023-01-30T00:10:38.440Z,38.97
2023-01-30T00:13:06.456Z,40.85
2023-01-30T00:15:33.142Z,35.70
2023-01-30T00:17:59.874Z,41.92
2023-01-30T00:20:26.399Z,42.22
2023-01-30T00:23:00.763Z,40.78
2023-01-30T00:25:28.353Z,45.30
2023-01-30T00:27:55.232Z,40.97
2023-01-30T00:30:23.753Z,41.60
2023-01-30T00:32:54.118Z,42.30
2023-01-30T00:35:20.731Z,38.13
2023-01-30T00:37:47.293Z,30.45
2023-01-30T00:40:15.061Z,41.05
2023-01-30T00:42:41.640Z,41.33
2023-01-30T00:45:10.718Z,39.55
2023-01-30T00:47:38.693Z,44.63
2023-01-30T00:50:06.223Z,38.55
2023-01-30T00:52:32.822Z,42.10
2023-01-30T00:54:59.374Z,35.20
2023-01-30T00:57:25.988Z,41.45
2023-01-30T00:59:52.646Z,46.13
2023-01-30T01:02:19.201Z,43.13
2023-01-30T01:04:47.368Z,41.40
2023-01-30T01:07:15.110Z,41.40
2023-01-30T01:09:42.069Z,35.72
2023-01-30T01:12:09.556Z,33.10
2023-01-30T01:14:36.156Z,41.83
2023-01-30T01:17:02.959Z,39.13
2023-01-30T01:19:29.877Z,37.10
2023-01-30T01:21:57.810Z,39.22
2023-01-30T01:24:24.407Z,39.55
2023-01-30T01:26:50.972Z,39.67
2023-01-30T01:29:17.597Z,39.50
2023-01-30T01:31:44.969Z,40.13
2023-01-30T01:34:11.895Z,34.38
2023-01-30T01:36:54.784Z,39.65
2023-01-30T01:39:23.751Z,40.50
2023-01-30T01:41:50.579Z,44.47
2023-01-30T01:44:17.566Z,42.25
2023-01-30T01:46:48.657Z,39.17
2023-01-30T01:49:19.597Z,37.40
2023-01-30T01:51:52.665Z,37.28
2023-01-30T01:54:26.483Z,38.28
2023-01-30T01:56:53.743Z,40.00
2023-01-30T01:59:25.481Z,40.50
2023-01-30T02:01:56.020Z,40.00
2023-01-30T02:04:23.795Z,37.80
2023-01-30T02:06:50.422Z,37.58
2023-01-30T02:09:17.313Z,40.53
2023-01-30T02:11:52.514Z,35.95
2023-01-30T02:14:20.785Z,38.85
2023-01-30T02:16:47.620Z,44.22
2023-01-30T02:19:24.529Z,40.78
2023-01-30T02:22:10.264Z,40.33
2023-01-30T02:25:12.124Z,38.50
2023-01-30T02:28:00.966Z,39.15
2023-01-30T02:30:59.292Z,37.65
2023-01-30T02:33:36.050Z,40.08
2023-01-30T02:36:13.470Z,37.92
2023-01-30T02:38:49.689Z,40.53
2023-01-30T02:41:27.562Z,41.20
2023-01-30T02:44:03.257Z,35.92
2023-01-30T02:46:39.215Z,39.35
2023-01-30T02:49:10.932Z,34.13
2023-01-30T02:51:40.745Z,35.05
2023-01-30T02:54:10.222Z,37.60
2023-01-30T02:56:45.353Z,35.88
2023-01-30T02:59:14.475Z,37.90
2023-01-30T03:02:20.010Z,39.25
2023-01-30T03:05:08.589Z,40.22
2023-01-30T03:07:44.925Z,37.78
2023-01-30T03:10:22.386Z,36.50
2023-01-30T03:13:02.698Z,41.50
2023-01-30T03:15:34.068Z,41.80
2023-01-30T03:18:03.214Z,35.72
2023-01-30T03:20:31.013Z,38.40
2023-01-30T03:22:57.634Z,34.38
2023-01-30T03:25:25.473Z,32.60
2023-01-30T03:27:54.371Z,40.15
2023-01-30T03:30:23.200Z,31.95
2023-01-30T03:32:49.883Z,36.75
2023-01-30T03:35:18.470Z,37.10
2023-01-30T03:37:46.113Z,36.88
2023-01-30T03:40:15.195Z,37.22
2023-01-30T03:42:41.926Z,35.15
2023-01-30T03:45:10.998Z,41.08
2023-01-30T03:47:37.713Z,34.90
2023-01-30T03:50:06.050Z,38.70
2023-01-30T03:52:36.262Z,38.30
2023-01-30T03:55:03.259Z,35.85
2023-01-30T03:57:30.023Z,38.65
2023-01-30T03:59:56.773Z,38.35
2023-01-30T04:02:23.569Z,34.13
2023-01-30T04:04:50.742Z,36.42
2023-01-30T04:07:17.376Z,34.22
2023-01-30T04:09:50.254Z,37.45
2023-01-30T04:12:19.191Z,34.78
2023-01-30T04:14:52.950Z,36.15
2023-01-30T04:17:27.268Z,35.40
2023-01-30T04:20:20.129Z,34.33
2023-01-30T04:22:50.895Z,33.50
2023-01-30T04:25:19.497Z,30.70
2023-01-30T04:27:46.290Z,32.83
2023-01-30T04:30:17.634Z,36.05
2023-01-30T04:32:45.811Z,35.03
2023-01-30T04:35:12.396Z,33.17
2023-01-30T04:37:40.465Z,32.35
2023-01-30T04:40:09.949Z,36.53
2023-01-30T04:42:38.074Z,32.70
2023-01-30T04:45:33.811Z,31.80
2023-01-30T04:48:00.942Z,33.63
2023-01-30T04:50:27.595Z,33.63
2023-01-30T04:52:54.528Z,31.50
2023-01-30T04:55:21.135Z,29.33
2023-01-30T04:57:49.032Z,31.48
2023-01-30T05:00:16.200Z,26.77
2023-01-30T05:02:50.957Z,29.35
2023-01-30T05:05:17.940Z,23.98
2023-01-30T05:07:45.567Z,26.92
2023-01-30T05:10:12.239Z,22.92
2023-01-30T05:12:38.813Z,24.42
2023-01-30T05:15:08.248Z,22.00
2023-01-30T05:17:35.296Z,21.35
2023-01-30T05:20:02.028Z,19.25
2023-01-30T05:22:28.670Z,22.02
2023-01-30T05:24:55.277Z,22.42
2023-01-30T05:27:21.992Z,21.27
2023-01-30T05:29:48.621Z,26.92
2023-01-30T05:32:18.999Z,21.15
2023-01-30T05:34:46.091Z,25.15
2023-01-30T05:37:13.061Z,23.88
2023-01-30T05:39:39.639Z,21.50
2023-01-30T05:42:06.296Z,22.27
2023-01-30T05:44:32.990Z,24.95
2023-01-30T05:46:59.535Z,26.75
2023-01-30T05:49:27.716Z,30.25
2023-01-30T05:51:54.268Z,23.27
2023-01-30T05:54:20.850Z,23.35
2023-01-30T05:56:48.967Z,28.10
2023-01-30T05:59:15.529Z,27.05
2023-01-30T06:01:42.294Z,32.58
2023-01-30T06:04:08.930Z,24.70
2023-01-30T06:06:36.833Z,28.27
2023-01-30T06:09:03.919Z,31.60
2023-01-30T06:11:30.749Z,31.60
2023-01-30T06:13:57.390Z,30.45
2023-01-30T06:16:24.073Z,26.27
2023-01-30T06:18:50.684Z,31.15
2023-01-30T06:21:17.239Z,32.65
2023-01-30T06:23:45.242Z,26.67
2023-01-30T06:26:11.915Z,32.70
2023-01-30T06:28:38.592Z,29.67
2023-01-30T06:31:06.971Z,31.15
2023-01-30T06:33:33.634Z,33.13
2023-01-30T06:36:00.386Z,29.00
2023-01-30T06:38:27.164Z,31.33
2023-01-30T06:40:55.109Z,34.95
2023-01-30T06:43:21.673Z,29.70
2023-01-30T06:45:48.444Z,29.83
2023-01-30T06:48:15.270Z,32.28
2023-01-30T06:50:41.813Z,24.73
2023-01-30T06:53:08.762Z,25.63
2023-01-30T06:55:36.509Z,29.48
2023-01-30T06:58:06.183Z,27.88
2023-01-30T07:00:33.683Z,26.60
2023-01-30T07:03:00.639Z,31.30
2023-01-30T07:05:27.506Z,29.02
2023-01-30T07:07:54.186Z,28.90
2023-01-30T07:10:20.954Z,30.90
2023-01-30T07:12:47.896Z,28.42
2023-01-30T07:15:16.443Z,28.77
2023-01-30T07:17:43.296Z,27.50
2023-01-30T07:20:10.928Z,30.65
2023-01-30T07:22:37.606Z,25.17
2023-01-30T07:25:04.897Z,23.20
2023-01-30T07:27:32.202Z,27.33
2023-01-30T07:29:58.892Z,24.30
2023-01-30T07:32:26.997Z,24.13
2023-01-30T07:34:53.637Z,26.77
2023-01-30T07:37:20.248Z,25.10
2023-01-30T07:39:46.871Z,20.02
2023-01-30T07:42:13.414Z,22.23
2023-01-30T07:44:40.281Z,21.55
2023-01-30T07:47:06.924Z,19.13
2023-01-30T07:49:34.840Z,20.08
2023-01-30T07:52:01.544Z,13.40
2023-01-30T07:54:28.206Z,15.40
2023-01-30T07:56:54.737Z,12.77
2023-01-30T07:59:21.395Z,14.30
2023-01-30T08:01:48.003Z,26.42
2023-01-30T08:04:14.724Z,17.58
2023-01-30T08:06:42.727Z,16.42
2023-01-30T08:09:09.595Z,17.73
2023-01-30T08:11:36.155Z,18.25
2023-01-30T08:14:03.068Z,14.50
2023-01-30T08:16:29.756Z,15.10
2023-01-30T08:18:56.336Z,13.77
2023-01-30T08:21:22.932Z,18.70
2023-01-30T08:23:50.968Z,13.00
2023-01-30T08:26:17.683Z,14.70
2023-01-30T08:28:44.394Z,22.70
2023-01-30T08:31:11.843Z,15.52
2023-01-30T08:33:38.701Z,13.70
2023-01-30T08:36:05.999Z,16.63
2023-01-30T08:38:32.914Z,23.05
2023-01-30T08:41:01.223Z,16.17
2023-01-30T08:43:28.211Z,19.15
2023-01-30T08:45:55.272Z,17.15
2023-01-30T08:48:22.687Z,16.95
2023-01-30T08:50:51.692Z,16.85
2023-01-30T08:53:18.374Z,17.80
2023-01-30T08:55:45.079Z,16.08
2023-01-30T08:58:13.024Z,17.90
2023-01-30T09:00:39.629Z,21.13
2023-01-30T09:03:06.282Z,17.65
2023-01-30T09:05:32.850Z,15.82
2023-01-30T09:07:59.463Z,11.48
2023-01-30T09:10:26.308Z,16.17
2023-01-30T09:12:53.010Z,17.60
2023-01-30T09:15:20.937Z,20.10
2023-01-30T09:17:47.640Z,18.50
2023-01-30T09:20:14.532Z,21.08
2023-01-30T09:22:49.681Z,16.48
2023-01-30T09:25:16.403Z,20.77
2023-01-30T09:27:42.954Z,17.23
2023-01-30T09:30:11.018Z,16.65
2023-01-30T09:32:38.969Z,14.90
2023-01-30T09:35:05.884Z,16.40
2023-01-30T09:37:32.448Z,19.02
2023-01-30T09:39:59.058Z,18.55
2023-01-30T09:42:44.095Z,21.48
2023-01-30T09:45:41.610Z,20.27
2023-01-30T09:48:18.275Z,18.88
2023-01-30T09:51:05.894Z,13.13
2023-01-30T09:53:39.953Z,14.95
2023-01-30T09:56:06.814Z,18.00
2023-01-30T09:58:45.680Z,12.65
2023-01-30T10:01:21.652Z,17.75
2023-01-30T10:04:06.560Z,17.63
2023-01-30T10:06:40.419Z,16.48
2023-01-30T10:09:16.289Z,15.80
2023-01-30T10:11:56.979Z,12.07
2023-01-30T10:14:47.203Z,13.07
2023-01-30T10:17:31.571Z,17.55
2023-01-30T10:20:16.391Z,18.10
2023-01-30T10:22:53.943Z,15.93
2023-01-30T10:25:29.086Z,17.67
2023-01-30T10:28:01.740Z,15.95
2023-01-30T10:32:58.745Z,14.82
2023-01-30T10:35:32.012Z,14.93
2023-01-30T10:38:03.894Z,16.33
2023-01-30T10:40:39.321Z,16.70
2023-01-30T10:43:13.717Z,15.55
2023-01-30T10:45:48.544Z,18.85
2023-01-30T10:48:51.507Z,17.10
2023-01-30T10:51:28.199Z,14.45
2023-01-30T10:54:00.825Z,13.10
2023-01-30T10:59:06.354Z,15.05
2023-01-30T11:01:38.033Z,16.85
2023-01-30T11:04:17.095Z,17.85
2023-01-30T11:06:46.106Z,16.63
2023-01-30T11:09:12.695Z,18.98
2023-01-30T11:11:48.728Z,12.50
2023-01-30T11:14:15.965Z,14.40
2023-01-30T11:16:46.355Z,14.77
2023-01-30T11:19:22.625Z,14.73
2023-01-30T11:21:53.849Z,11.98
2023-01-30T11:24:24.217Z,13.52
2023-01-30T11:26:51.092Z,12.30
2023-01-30T11:29:27.527Z,13.40
2023-01-30T11:31:54.510Z,12.88
2023-01-30T11:34:23.564Z,9.68
2023-01-30T11:36:51.616Z,12.18
2023-01-30T11:39:22.010Z,11.07
2023-01-30T11:41:58.220Z,11.30
2023-01-30T11:44:26.407Z,15.85
2023-01-30T11:46:53.365Z,15.68
2023-01-30T11:49:45.507Z,12.48
2023-01-30T11:52:10.664Z,16.10
2023-01-30T11:54:39.669Z,15.25
2023-01-30T11:57:11.527Z,14.35
2023-01-30T11:59:44.034Z,17.73
2023-01-30T12:02:18.013Z,24.20
2023-01-30T12:04:45.637Z,14.02
2023-01-30T12:07:21.939Z,10.70
2023-01-30T12:09:49.169Z,13.20
2023-01-30T12:12:33.866Z,13.65
2023-01-30T12:15:17.136Z,15.38
2023-01-30T12:17:51.072Z,13.02
2023-01-30T12:20:23.562Z,12.25
2023-01-30T12:23:02.728Z,13.57
2023-01-30T12:25:35.186Z,12.90
2023-01-30T12:28:03.459Z,17.80
2023-01-30T12:30:36.429Z,15.15
2023-01-30T12:33:05.622Z,12.13
2023-01-30T12:35:50.104Z,14.40
2023-01-30T12:38:32.254Z,12.43
2023-01-30T12:41:14.978Z,16.23
2023-01-30T12:43:55.018Z,14.10
2023-01-30T12:46:42.368Z,17.58
2023-01-30T12:49:28.928Z,14.27
2023-01-30T12:52:09.872Z,13.82
2023-01-30T12:54:48.844Z,18.92
2023-01-30T12:57:24.063Z,6.00
2023-01-30T12:59:59.477Z,15.25
2023-01-30T13:02:44.991Z,16.20
2023-01-30T13:05:22.645Z,16.90
2023-01-30T13:08:03.093Z,14.77
2023-01-30T13:10:38.256Z,16.85
2023-01-30T13:13:13.637Z,14.20
2023-01-30T13:15:52.255Z,15.70
2023-01-30T13:18:24.851Z,14.80
2023-01-30T13:21:00.365Z,17.40
2023-01-30T13:23:38.825Z,22.17
2023-01-30T13:26:10.627Z,16.88
2023-01-30T13:28:40.493Z,12.43
2023-01-30T13:31:12.529Z,10.57
2023-01-30T13:33:43.764Z,17.35
2023-01-30T13:36:16.379Z,14.05
2023-01-30T13:38:52.439Z,12.03
2023-01-30T13:41:21.255Z,13.40
2023-01-30T13:43:52.227Z,18.33
2023-01-30T13:46:26.360Z,15.55
2023-01-30T13:49:09.199Z,15.10
2023-01-30T13:54:22.711Z,11.98
2023-01-30T13:56:56.389Z,13.75
2023-01-30T13:59:39.316Z,10.18
2023-01-30T14:02:17.857Z,15.45
2023-01-30T14:04:49.639Z,13.02
2023-01-30T14:07:21.429Z,14.93
2023-01-30T14:09:51.952Z,17.52
2023-01-30T14:12:23.723Z,14.77
2023-01-30T14:15:00.570Z,22.30
2023-01-30T14:17:27.827Z,16.90
2023-01-30T14:20:14.875Z,13.98
2023-01-30T14:22:51.383Z,14.82
2023-01-30T14:25:44.003Z,15.90
2023-01-30T14:28:49.087Z,21.40
2023-01-30T14:31:52.166Z,11.75
2023-01-30T14:34:47.986Z,14.13
2023-01-30T14:37:46.043Z,12.30
2023-01-30T14:40:34.308Z,20.33
2023-01-30T14:43:40.726Z,21.02
2023-01-30T14:46:32.551Z,16.60
2023-01-30T14:49:02.972Z,14.82
2023-01-30T14:51:35.552Z,22.33
2023-01-30T14:56:40.799Z,17.63
2023-01-30T14:59:11.088Z,12.32
2023-01-30T15:01:59.003Z,9.27
2023-01-30T15:04:29.979Z,17.42
2023-01-30T15:07:00.512Z,15.48
2023-01-30T15:09:30.228Z,13.65
2023-01-30T15:12:20.767Z,14.27
2023-01-30T15:14:58.135Z,21.23
2023-01-30T15:17:32.510Z,14.27
2023-01-30T15:20:11.437Z,19.55
2023-01-30T15:22:51.777Z,16.25
2023-01-30T15:25:36.126Z,13.40
2023-01-30T15:28:13.634Z,18.52
2023-01-30T15:30:51.403Z,13.80
2023-01-30T15:33:29.956Z,16.63
2023-01-30T15:35:57.548Z,17.88
2023-01-30T15:38:28.971Z,17.17
2023-01-30T15:40:57.827Z,13.85
2023-01-30T15:43:42.319Z,13.85
2023-01-30T15:46:16.927Z,16.65
2023-01-30T15:48:58.815Z,19.58
2023-01-30T15:51:27.769Z,15.45
2023-01-30T15:53:58.397Z,18.63
2023-01-30T15:56:28.847Z,18.55
2023-01-30T15:58:58.085Z,17.27
2023-01-30T16:01:24.926Z,22.15
2023-01-30T16:03:52.326Z,19.02
2023-01-30T16:06:24.681Z,16.15
2023-01-30T16:09:00.383Z,17.23
2023-01-30T16:11:34.503Z,18.63
2023-01-30T16:14:01.235Z,21.80
2023-01-30T16:16:29.073Z,15.80
2023-01-30T16:18:58.726Z,11.77
2023-01-30T16:21:28.544Z,18.85
2023-01-30T16:24:00.717Z,20.25
2023-01-30T16:26:30.068Z,15.90
2023-01-30T16:29:01.404Z,16.90
2023-01-30T16:31:32.085Z,18.80
2023-01-30T16:33:59.039Z,20.52
2023-01-30T16:36:31.583Z,17.10
2023-01-30T16:38:58.413Z,16.98
2023-01-30T16:41:32.150Z,14.45
2023-01-30T16:44:16.363Z,20.63
2023-01-30T16:46:51.689Z,20.50
2023-01-30T16:49:23.103Z,21.20
2023-01-30T16:51:59.600Z,20.88
2023-01-30T16:54:29.489Z,16.33
2023-01-30T16:57:00.022Z,20.27
2023-01-30T16:59:30.719Z,22.25
2023-01-30T17:01:58.271Z,19.75
2023-01-30T17:04:28.896Z,19.25
2023-01-30T17:06:57.504Z,27.00
2023-01-30T17:09:40.159Z,14.60
2023-01-30T17:12:35.695Z,18.38
2023-01-30T17:15:27.081Z,23.55
2023-01-30T17:17:53.778Z,16.15
2023-01-30T17:20:20.398Z,16.58
2023-01-30T17:22:50.081Z,25.08
2023-01-30T17:25:29.660Z,19.90
2023-01-30T17:27:58.104Z,17.20
2023-01-30T17:30:24.759Z,21.38
2023-01-30T17:32:51.312Z,19.50
2023-01-30T17:35:18.762Z,31.25
2023-01-30T17:37:48.560Z,16.13
2023-01-30T17:40:16.940Z,23.65
2023-01-30T17:42:43.799Z,17.23
2023-01-30T17:45:12.059Z,23.98
2023-01-30T17:47:38.699Z,18.15
2023-01-30T17:50:06.218Z,16.60
2023-01-30T17:52:32.848Z,23.02
2023-01-30T17:54:59.497Z,24.20
2023-01-30T17:57:26.262Z,17.25
2023-01-30T17:59:52.867Z,17.60
2023-01-30T18:02:20.933Z,20.02
2023-01-30T18:04:47.563Z,22.25
2023-01-30T18:07:15.035Z,18.60
2023-01-30T18:09:42.035Z,15.35
2023-01-30T18:12:08.679Z,23.05
2023-01-30T18:14:35.290Z,17.45
2023-01-30T18:17:02.063Z,22.20
2023-01-30T18:19:30.249Z,20.50
2023-01-30T18:21:57.209Z,22.05
2023-01-30T18:24:24.333Z,21.35
2023-01-30T18:26:51.191Z,24.35
2023-01-30T18:29:17.895Z,21.25
2023-01-30T18:31:44.720Z,19.30
2023-01-30T18:34:11.723Z,15.18
2023-01-30T18:36:39.618Z,18.40
2023-01-30T18:39:06.390Z,21.73
2023-01-30T18:41:33.189Z,18.35
2023-01-30T18:44:01.813Z,21.63
2023-01-30T18:46:29.494Z,16.92
2023-01-30T18:48:56.647Z,19.42
2023-01-30T18:51:25.899Z,23.08
2023-01-30T18:53:54.677Z,12.20
2023-01-30T18:56:23.124Z,15.15
2023-01-30T18:58:50.000Z,16.50
2023-01-30T19:01:18.704Z,10.80
2023-01-30T19:03:45.308Z,14.30
2023-01-30T19:06:13.270Z,12.88
2023-01-30T19:08:40.167Z,15.63
2023-01-30T19:11:09.997Z,13.60
2023-01-30T19:13:36.636Z,17.52
2023-01-30T19:16:04.331Z,8.65
2023-01-30T19:18:31.870Z,12.65
2023-01-30T19:20:59.463Z,15.27
2023-01-30T19:23:26.919Z,12.20
2023-01-30T19:25:54.386Z,14.32
2023-01-30T19:28:22.382Z,12.50
2023-01-30T19:30:49.083Z,17.58
2023-01-30T19:33:15.948Z,13.02
2023-01-30T19:35:42.753Z,22.23
2023-01-30T19:38:09.903Z,14.80
2023-01-30T19:40:40.197Z,15.05
2023-01-30T19:43:10.866Z,18.98
2023-01-30T19:45:40.553Z,13.40
2023-01-30T19:48:07.827Z,16.25
2023-01-30T19:50:34.639Z,19.20
2023-01-30T19:53:01.252Z,19.23
2023-01-30T19:55:27.873Z,15.55
2023-01-30T19:57:54.511Z,15.18
2023-01-30T20:00:22.084Z,17.58
2023-01-30T20:02:50.153Z,16.55
2023-01-30T20:05:16.887Z,24.75
2023-01-30T20:07:43.501Z,28.63
2023-01-30T20:10:10.764Z,24.13
2023-01-30T20:12:37.311Z,19.92
2023-01-30T20:15:04.479Z,24.95
2023-01-30T20:17:32.108Z,26.20
2023-01-30T20:20:00.152Z,19.75
2023-01-30T20:22:26.804Z,27.02
2023-01-30T20:24:53.426Z,26.08
2023-01-30T20:27:20.062Z,28.20
2023-01-30T20:29:46.686Z,31.55
2023-01-30T20:32:13.268Z,21.52
2023-01-30T20:34:39.870Z,19.58
2023-01-30T20:37:07.795Z,31.00
2023-01-30T20:39:34.489Z,31.52
2023-01-30T20:42:01.137Z,21.48
2023-01-30T20:44:27.948Z,25.17
2023-01-30T20:46:54.583Z,26.27
2023-01-30T20:49:22.713Z,31.98
2023-01-30T20:51:51.295Z,29.45
2023-01-30T20:54:21.194Z,23.73
2023-01-30T20:56:50.030Z,19.23
2023-01-30T20:59:19.181Z,30.45
2023-01-30T21:01:46.516Z,24.45
2023-01-30T21:04:15.241Z,28.75
2023-01-30T21:06:45.827Z,21.48
2023-01-30T21:09:15.115Z,23.90
2023-01-30T21:11:43.237Z,25.17
2023-01-30T21:14:10.155Z,18.67
2023-01-30T21:16:37.219Z,25.73
2023-01-30T21:19:06.740Z,17.75
2023-01-30T21:21:35.971Z,22.10
2023-01-30T21:24:05.101Z,24.45
2023-01-30T21:26:34.693Z,23.13
2023-01-30T21:29:04.376Z,21.45
2023-01-30T21:31:31.484Z,26.90
2023-01-30T21:33:58.949Z,20.95
2023-01-30T21:36:27.330Z,23.20
2023-01-30T21:38:54.797Z,23.75
2023-01-30T21:41:23.312Z,22.70
2023-01-30T21:43:49.935Z,22.27
2023-01-30T21:46:18.193Z,29.23
2023-01-30T21:48:44.866Z,20.42
2023-01-30T21:51:12.310Z,13.88
2023-01-30T21:53:39.010Z,20.40
2023-01-30T21:56:06.579Z,24.60
2023-01-30T21:58:33.192Z,28.77
2023-01-30T22:01:07.285Z,23.88
2023-01-30T22:03:35.491Z,23.05
2023-01-30T22:06:02.349Z,18.33
2023-01-30T22:08:29.009Z,18.48
2023-01-30T22:11:06.652Z,19.27
2023-01-30T22:13:33.631Z,20.83
2023-01-30T22:16:04.185Z,19.80
2023-01-30T22:18:31.725Z,27.13
2023-01-30T22:21:04.399Z,24.10
2023-01-30T22:23:32.562Z,28.73
2023-01-30T22:25:59.222Z,27.50
2023-01-30T22:28:25.935Z,17.38
2023-01-30T22:30:52.492Z,21.58
2023-01-30T22:33:19.128Z,16.75
2023-01-30T22:35:48.702Z,26.38
2023-01-30T22:38:16.645Z,23.08
2023-01-30T22:40:43.196Z,24.85
2023-01-30T22:43:09.738Z,23.58
2023-01-30T22:45:36.375Z,18.42
2023-01-30T22:48:03.056Z,25.25
2023-01-30T22:50:29.708Z,17.92
2023-01-30T22:52:56.373Z,24.60
2023-01-30T22:55:24.362Z,22.60
2023-01-30T22:57:51.062Z,23.95
2023-01-30T23:00:18.166Z,27.15
2023-01-30T23:02:44.837Z,16.38
2023-01-30T23:05:11.722Z,17.88
2023-01-30T23:07:38.303Z,20.55
2023-01-30T23:10:05.556Z,28.70
2023-01-30T23:12:33.591Z,17.77
2023-01-30T23:15:00.160Z,23.70
2023-01-30T23:17:26.817Z,27.00
2023-01-30T23:19:53.867Z,23.58
2023-01-30T23:22:20.634Z,22.33
2023-01-30T23:24:47.237Z,24.85
2023-01-30T23:27:14.179Z,20.45
2023-01-30T23:29:42.062Z,21.63
2023-01-30T23:32:08.721Z,23.50
2023-01-30T23:34:35.658Z,13.57
2023-01-30T23:37:02.344Z,21.38
2023-01-30T23:39:28.926Z,22.23
2023-01-30T23:41:55.667Z,15.23
2023-01-30T23:44:22.396Z,21.80
2023-01-30T23:50:47.033Z,24.40
2023-01-30T23:53:13.677Z,25.90
2023-01-30T23:55:40.281Z,20.38
2023-01-30T23:58:06.924Z,24.45
